Naomi, South Dakota
Current Conditions -  °F | °C
As of 12:13 AM on Wednesday 26 Nov 2014 (Local Time) from KFSD Reporting Station
Light Snow Light Snow  
Wind Chill: 25°   Ceiling: 500
Heat Index: 31°   Visibility: 2mi
Dew Point: 30°   Wind: 6mph
Humidity: 96%   Direction: 100°E
Pressure: 29.81"   Gusts: NA
Location:  43.3014°N, 96.8655°W
Report Text: KFSD 260613Z AUTO 10005KT 2SM -SN BR OVC005 M01/M01 A2981 RMK AO2 P0001 T10061011
Loading
Personal Weather Stations






























Interactive Weather Map New forecast layout! Learn more

10-Day Weather Forecast

Advertisements
Track Severe Weather on mobile